createdAt,value
2022-12-22T00:02:09.990Z,100565.59
2022-12-22T00:04:56.020Z,100561.25
2022-12-22T00:07:41.815Z,100563.03
2022-12-22T00:10:28.190Z,100550.94
2022-12-22T00:13:14.000Z,100567.34
2022-12-22T00:15:59.759Z,100547.44
2022-12-22T00:18:46.172Z,100569.06
2022-12-22T00:21:32.500Z,100559.53
2022-12-22T00:24:18.853Z,100551.81
2022-12-22T00:27:05.068Z,100561.34
2022-12-22T00:29:56.988Z,100560.47
2022-12-22T00:32:45.974Z,100557.00
2022-12-22T00:35:33.455Z,100534.53
2022-12-22T00:38:19.309Z,100534.53
2022-12-22T00:41:05.091Z,100518.94
2022-12-22T00:43:50.668Z,100528.44
2022-12-22T00:46:37.673Z,100528.47
2022-12-22T00:49:23.536Z,100530.22
2022-12-22T00:52:09.630Z,100519.84
2022-12-22T00:54:55.794Z,100527.63
2022-12-22T00:57:46.401Z,100529.34
2022-12-22T01:00:37.335Z,100518.09
2022-12-22T01:03:23.721Z,100506.00
2022-12-22T01:06:09.744Z,100516.38
2022-12-22T01:08:55.594Z,100513.75
2022-12-22T01:11:41.447Z,100517.19
2022-12-22T01:14:30.774Z,100512.00
2022-12-22T01:17:16.740Z,100518.06
2022-12-22T01:20:02.601Z,100513.75
2022-12-22T01:22:48.729Z,100518.91
2022-12-22T01:25:36.435Z,100521.56
2022-12-22T01:28:23.437Z,100518.94
2022-12-22T01:31:09.808Z,100515.50
2022-12-22T01:33:55.582Z,100516.34
2022-12-22T01:36:41.129Z,100512.78
2022-12-22T01:39:27.263Z,100511.16
2022-12-22T01:42:13.003Z,100512.91
2022-12-22T01:44:58.608Z,100499.03
2022-12-22T01:47:47.224Z,100512.91
2022-12-22T01:50:42.676Z,100515.38
2022-12-22T01:53:34.000Z,100507.56
2022-12-22T01:56:20.700Z,100510.19
2022-12-22T01:59:11.621Z,100511.94
2022-12-22T02:01:59.290Z,100498.16
2022-12-22T02:04:49.837Z,100508.63
2022-12-22T02:07:47.138Z,100510.34
2022-12-22T02:10:54.148Z,100503.44
2022-12-22T02:13:54.162Z,100505.16
2022-12-22T02:16:50.305Z,100502.56
2022-12-22T02:20:08.471Z,100506.88
2022-12-22T02:23:12.467Z,100498.25
2022-12-22T02:26:10.401Z,100501.69
2022-12-22T02:28:56.477Z,100505.13
2022-12-22T02:31:42.967Z,100496.47
2022-12-22T02:34:37.738Z,100506.88
2022-12-22T02:37:33.743Z,100491.28
2022-12-22T02:40:22.546Z,100497.34
2022-12-22T02:43:53.091Z,100494.75
2022-12-22T02:46:56.580Z,100492.16
2022-12-22T02:49:53.866Z,100492.13
2022-12-22T02:52:53.521Z,100505.09
2022-12-22T02:55:39.889Z,100484.31
2022-12-22T02:58:26.156Z,100516.28
2022-12-22T03:01:12.178Z,100499.88
2022-12-22T03:03:58.047Z,100524.09
2022-12-22T03:06:43.842Z,100518.78
2022-12-22T03:09:29.895Z,100518.06
2022-12-22T03:12:15.945Z,100514.53
2022-12-22T03:15:01.763Z,100519.78
2022-12-22T03:17:47.577Z,100519.69
2022-12-22T03:20:33.714Z,100528.22
2022-12-22T03:23:23.388Z,100505.84
2022-12-22T03:25:54.062Z,100524.88
2022-12-22T03:28:23.939Z,100523.97
2022-12-22T03:31:04.331Z,100514.41
2022-12-22T03:33:32.882Z,100495.41
2022-12-22T03:36:00.756Z,100510.94
2022-12-22T03:38:28.127Z,100506.66
2022-12-22T03:40:55.556Z,100517.88
2022-12-22T03:43:41.350Z,100509.19
2022-12-22T03:46:32.206Z,100495.41
2022-12-22T03:49:10.454Z,100497.16
2022-12-22T03:51:49.046Z,100519.66
2022-12-22T03:54:18.696Z,100494.66
2022-12-22T03:56:46.949Z,100477.41
2022-12-22T03:59:15.309Z,100487.78
2022-12-22T04:01:52.343Z,100493.00
2022-12-22T04:04:21.692Z,100499.06
2022-12-22T04:06:49.450Z,100491.25
2022-12-22T04:09:17.034Z,100492.16
2022-12-22T04:12:03.226Z,100481.72
2022-12-22T04:14:34.223Z,100482.53
2022-12-22T04:17:03.661Z,100488.56
2022-12-22T04:19:31.310Z,100492.94
2022-12-22T04:21:58.996Z,100480.84
2022-12-22T04:24:26.418Z,100486.88
2022-12-22T04:26:53.912Z,100490.34
2022-12-22T04:29:21.201Z,100475.66
2022-12-22T04:31:48.592Z,100460.13
2022-12-22T04:34:15.910Z,100473.09
2022-12-22T04:36:43.264Z,100477.41
2022-12-22T04:39:10.513Z,100501.66
2022-12-22T04:41:37.704Z,100488.72
2022-12-22T04:44:05.011Z,100487.84
2022-12-22T04:46:33.469Z,100475.72
2022-12-22T04:49:00.958Z,100479.16
2022-12-22T04:51:28.802Z,100487.81
2022-12-22T04:53:56.301Z,100492.13
2022-12-22T04:56:23.553Z,100447.09
2022-12-22T04:58:50.827Z,100479.22
2022-12-22T05:01:19.504Z,100479.22
2022-12-22T05:03:47.287Z,100485.28
2022-12-22T05:06:15.077Z,100479.25
2022-12-22T05:08:42.337Z,100463.66
2022-12-22T05:11:10.252Z,100474.06
2022-12-22T05:13:38.065Z,100468.00
2022-12-22T05:16:11.625Z,100460.22
2022-12-22T05:18:39.922Z,100461.09
2022-12-22T05:21:10.991Z,100459.38
2022-12-22T05:23:38.471Z,100447.28
2022-12-22T05:26:06.140Z,100455.91
2022-12-22T05:28:33.811Z,100448.13
2022-12-22T05:31:14.844Z,100459.31
2022-12-22T05:33:42.183Z,100450.69
2022-12-22T05:36:09.559Z,100474.06
2022-12-22T05:38:37.009Z,100435.09
2022-12-22T05:41:05.018Z,100475.75
2022-12-22T05:43:33.379Z,100478.41
2022-12-22T05:46:05.699Z,100477.53
2022-12-22T05:48:38.114Z,100468.88
2022-12-22T05:51:08.441Z,100478.38
2022-12-22T05:53:36.715Z,100474.91
2022-12-22T05:56:04.374Z,100472.31
2022-12-22T05:58:31.610Z,100464.53
2022-12-22T06:01:00.012Z,100465.34
2022-12-22T06:03:29.040Z,100448.88
2022-12-22T06:05:57.228Z,100469.59
2022-12-22T06:08:25.222Z,100454.88
2022-12-22T06:10:55.185Z,100479.94
2022-12-22T06:13:22.404Z,100483.38
2022-12-22T06:15:49.754Z,100472.13
2022-12-22T06:18:17.245Z,100482.50
2022-12-22T06:20:47.802Z,100483.31
2022-12-22T06:23:15.116Z,100468.66
2022-12-22T06:25:42.444Z,100477.31
2022-12-22T06:28:09.698Z,100473.03
2022-12-22T06:30:36.987Z,100467.03
2022-12-22T06:33:04.286Z,100487.75
2022-12-22T06:35:31.593Z,100490.31
2022-12-22T06:37:58.804Z,100477.31
2022-12-22T06:40:26.126Z,100508.44
2022-12-22T06:43:11.276Z,100507.56
2022-12-22T06:45:43.452Z,100520.56
2022-12-22T06:48:12.412Z,100513.66
2022-12-22T06:50:40.095Z,100515.38
2022-12-22T06:53:08.743Z,100500.72
2022-12-22T06:55:37.051Z,100508.53
2022-12-22T06:58:05.393Z,100504.19
2022-12-22T07:00:33.749Z,100507.66
2022-12-22T07:03:01.402Z,100505.94
2022-12-22T07:05:31.785Z,100520.63
2022-12-22T07:08:05.774Z,100472.22
2022-12-22T07:10:54.266Z,100495.53
2022-12-22T07:13:21.685Z,100513.69
2022-12-22T07:15:55.569Z,100519.78
2022-12-22T07:18:28.408Z,100522.38
2022-12-22T07:20:55.781Z,100517.25
2022-12-22T07:23:23.261Z,100506.03
2022-12-22T07:25:50.491Z,100509.50
2022-12-22T07:28:20.956Z,100491.38
2022-12-22T07:30:53.194Z,100484.47
2022-12-22T07:33:21.343Z,100483.56
2022-12-22T07:35:48.608Z,100483.59
2022-12-22T07:38:15.836Z,100475.81
2022-12-22T07:40:44.340Z,100465.44
2022-12-22T07:43:14.065Z,100473.22
2022-12-22T07:45:41.257Z,100488.75
2022-12-22T07:48:29.391Z,100492.22
2022-12-22T07:51:03.224Z,100483.59
2022-12-22T07:53:30.921Z,100444.66
2022-12-22T07:56:02.372Z,100460.25
2022-12-22T07:58:29.705Z,100474.94
2022-12-22T08:00:58.904Z,100506.94
2022-12-22T08:03:26.320Z,100476.66
2022-12-22T08:05:53.730Z,100481.00
2022-12-22T08:08:21.132Z,100474.06
2022-12-22T08:10:48.326Z,100424.72
2022-12-22T08:13:15.785Z,100474.00
2022-12-22T08:15:43.155Z,100438.50
2022-12-22T08:18:10.414Z,100459.22
2022-12-22T08:20:37.696Z,100458.41
2022-12-22T08:23:05.025Z,100464.47
2022-12-22T08:25:34.081Z,100479.19
2022-12-22T08:28:02.132Z,100472.28
2022-12-22T08:30:29.796Z,100487.84
2022-12-22T08:32:57.041Z,100473.06
2022-12-22T08:35:24.359Z,100470.44
2022-12-22T08:37:52.722Z,100466.06
2022-12-22T08:40:24.165Z,100460.06
2022-12-22T08:42:56.656Z,100464.97
2022-12-22T08:45:24.004Z,100461.28
2022-12-22T08:47:51.216Z,100436.31
2022-12-22T08:50:18.613Z,100423.91
2022-12-22T08:52:45.976Z,100452.72
2022-12-22T08:55:13.211Z,100447.47
2022-12-22T08:57:40.479Z,100453.63
2022-12-22T09:00:09.682Z,100454.88
2022-12-22T09:02:37.136Z,100434.00
2022-12-22T09:05:05.016Z,100439.13
2022-12-22T09:07:32.212Z,100426.59
2022-12-22T09:09:59.589Z,100428.50
2022-12-22T09:12:26.860Z,100431.91
2022-12-22T09:14:54.079Z,100436.38
2022-12-22T09:17:21.404Z,100426.09
2022-12-22T09:19:48.633Z,100433.09
2022-12-22T09:22:18.332Z,100438.31
2022-12-22T09:24:49.147Z,100432.28
2022-12-22T09:27:16.474Z,100443.47
2022-12-22T09:29:43.755Z,100431.88
2022-12-22T09:32:11.115Z,100431.78
2022-12-22T09:34:38.480Z,100418.75
2022-12-22T09:37:06.602Z,100426.56
2022-12-22T09:39:33.810Z,100418.13
2022-12-22T09:42:01.364Z,100413.72
2022-12-22T09:58:58.354Z,100348.38
2022-12-22T10:01:53.725Z,100423.31
2022-12-22T10:04:27.118Z,100419.75
2022-12-22T10:06:58.745Z,100402.47
2022-12-22T10:09:49.746Z,100437.88
2022-12-22T10:12:22.288Z,100429.94
2022-12-22T10:14:51.981Z,100440.44
2022-12-22T10:17:29.239Z,100438.75
2022-12-22T10:20:14.859Z,100458.78
2022-12-22T10:22:49.935Z,100452.78
2022-12-22T10:25:39.740Z,100446.19
2022-12-22T10:28:22.267Z,100449.53
2022-12-22T10:30:49.903Z,100451.66
2022-12-22T10:33:18.950Z,100435.47
2022-12-22T10:35:48.395Z,100437.28
2022-12-22T10:38:21.212Z,100424.22
2022-12-22T10:41:02.061Z,100402.22
2022-12-22T10:43:34.505Z,100397.00
2022-12-22T10:46:03.883Z,100391.09
2022-12-22T10:48:36.014Z,100414.78
2022-12-22T10:51:08.053Z,100427.56
2022-12-22T10:53:44.751Z,100416.78
2022-12-22T10:56:30.516Z,100385.03
2022-12-22T10:59:20.661Z,100373.03
2022-12-22T11:01:49.312Z,100374.13
2022-12-22T11:04:16.669Z,100385.94
2022-12-22T11:06:44.756Z,100373.91
2022-12-22T11:09:32.341Z,100361.16
2022-12-22T11:12:22.039Z,100366.94
2022-12-22T11:15:26.491Z,100355.16
2022-12-22T11:18:10.686Z,100332.31
2022-12-22T11:20:47.995Z,100341.72
2022-12-22T11:23:22.575Z,100334.72
2022-12-22T11:26:08.514Z,100321.88
2022-12-22T11:28:54.814Z,100300.47
2022-12-22T11:31:55.489Z,100316.16
2022-12-22T11:34:53.869Z,100316.91
2022-12-22T11:37:45.729Z,100314.50
2022-12-22T11:40:17.089Z,100315.75
2022-12-22T11:43:02.173Z,100298.47
2022-12-22T11:45:47.495Z,100311.38
2022-12-22T11:48:36.692Z,100315.53
2022-12-22T11:51:14.381Z,100297.63
2022-12-22T11:54:17.681Z,100300.19
2022-12-22T11:57:07.821Z,100283.31
2022-12-22T11:59:43.196Z,100291.03
2022-12-22T12:02:19.702Z,100302.41
2022-12-22T12:05:11.207Z,100303.22
2022-12-22T12:07:43.066Z,100280.97
2022-12-22T12:10:25.604Z,100283.56
2022-12-22T12:13:16.894Z,100282.50
2022-12-22T12:15:55.561Z,100284.28
2022-12-22T12:18:38.050Z,100281.75
2022-12-22T12:21:23.518Z,100289.44
2022-12-22T12:24:00.452Z,100292.84
2022-12-22T12:26:50.742Z,100288.41
2022-12-22T12:29:25.826Z,100280.56
2022-12-22T12:32:21.565Z,100295.09
2022-12-22T12:34:54.552Z,100276.75
2022-12-22T12:37:29.138Z,100288.72
2022-12-22T12:40:18.014Z,100288.50
2022-12-22T12:42:47.962Z,100294.75
2022-12-22T12:45:33.942Z,100294.00
2022-12-22T12:48:23.599Z,100282.31
2022-12-22T12:50:51.764Z,100286.00
2022-12-22T12:53:24.312Z,100223.16
2022-12-22T12:55:53.021Z,100288.66
2022-12-22T12:58:35.725Z,100295.31
2022-12-22T13:01:04.994Z,100294.59
2022-12-22T13:06:50.250Z,100288.75
2022-12-22T13:12:48.935Z,100293.97
2022-12-22T13:15:36.334Z,100282.81
2022-12-22T13:18:28.612Z,100284.59
2022-12-22T13:21:42.411Z,100288.16
2022-12-22T13:24:25.167Z,100281.31
2022-12-22T13:26:55.766Z,100303.03
2022-12-22T13:29:29.231Z,100275.59
2022-12-22T13:32:15.919Z,100299.78
2022-12-22T13:35:35.604Z,100305.88
2022-12-22T13:38:04.548Z,100293.88
2022-12-22T13:40:40.177Z,100293.78
2022-12-22T13:43:16.523Z,100287.78
2022-12-22T13:46:02.215Z,100284.25
2022-12-22T13:48:46.608Z,100280.72
2022-12-22T13:51:19.783Z,100281.63
2022-12-22T13:54:26.268Z,100279.09
2022-12-22T13:56:59.334Z,100266.59
2022-12-22T13:59:39.365Z,100276.25
2022-12-22T14:02:09.625Z,100280.75
2022-12-22T14:04:39.297Z,100283.38
2022-12-22T14:07:24.843Z,100275.53
2022-12-22T14:09:56.360Z,100279.06
2022-12-22T14:12:26.577Z,100276.53
2022-12-22T14:14:56.653Z,100283.81
2022-12-22T14:17:27.297Z,100286.53
2022-12-22T14:19:57.374Z,100292.75
2022-12-22T14:22:35.271Z,100295.47
2022-12-22T14:25:15.314Z,100310.22
2022-12-22T14:27:46.067Z,100301.53
2022-12-22T14:30:26.476Z,100306.75
2022-12-22T14:32:56.249Z,100298.75
2022-12-22T14:35:28.157Z,100304.78
2022-12-22T14:38:23.819Z,100309.06
2022-12-22T14:40:57.167Z,100315.19
2022-12-22T14:43:28.756Z,100311.06
2022-12-22T14:46:08.345Z,100316.41
2022-12-22T14:48:41.066Z,100318.31
2022-12-22T14:51:08.408Z,100317.63
2022-12-22T14:53:54.741Z,100325.50
2022-12-22T14:56:22.941Z,100332.47
2022-12-22T14:58:50.874Z,100328.28
2022-12-22T15:01:26.749Z,100336.09
2022-12-22T15:03:59.307Z,100338.63
2022-12-22T15:06:26.600Z,100343.03
2022-12-22T15:09:11.563Z,100351.75
2022-12-22T15:11:46.322Z,100348.25
2022-12-22T15:14:17.206Z,100339.69
2022-12-22T15:16:45.507Z,100329.28
2022-12-22T15:19:15.325Z,100335.28
2022-12-22T15:21:42.588Z,100329.28
2022-12-22T15:24:18.112Z,100351.72
2022-12-22T15:26:46.152Z,100353.47
2022-12-22T15:29:13.624Z,100326.78
2022-12-22T15:31:42.534Z,100356.16
2022-12-22T15:34:27.129Z,100350.13
2022-12-22T15:36:54.631Z,100356.22
2022-12-22T15:39:23.358Z,100356.28
2022-12-22T15:41:51.036Z,100331.19
2022-12-22T15:44:18.493Z,100321.72
2022-12-22T15:46:54.584Z,100357.06
2022-12-22T15:49:25.581Z,100350.16
2022-12-22T15:52:00.618Z,100340.69
2022-12-22T15:54:29.543Z,100339.81
2022-12-22T15:56:57.007Z,100338.09
2022-12-22T15:59:27.093Z,100357.88
2022-12-22T16:02:00.489Z,100342.16
2022-12-22T16:04:29.259Z,100361.00
2022-12-22T16:06:57.170Z,100347.97
2022-12-22T16:09:29.071Z,100346.06
2022-12-22T16:11:57.141Z,100333.94
2022-12-22T16:14:24.662Z,100334.97
2022-12-22T16:16:51.957Z,100349.69
2022-12-22T16:19:19.589Z,100354.81
2022-12-22T16:21:51.328Z,100329.81
2022-12-22T16:24:33.788Z,100346.34
2022-12-22T16:27:02.438Z,100338.63
2022-12-22T16:29:30.212Z,100335.19
2022-12-22T16:32:17.572Z,100345.50
2022-12-22T16:34:45.831Z,100346.31
2022-12-22T16:37:13.099Z,100343.66
2022-12-22T16:39:40.980Z,100346.91
2022-12-22T16:45:05.641Z,100340.72
2022-12-22T16:47:36.809Z,100321.84
2022-12-22T16:50:16.042Z,100320.00
2022-12-22T16:52:43.288Z,100320.66
2022-12-22T16:55:17.555Z,100338.00
2022-12-22T16:57:44.977Z,100316.69
2022-12-22T17:00:21.712Z,100346.28
2022-12-22T17:02:55.925Z,100342.88
2022-12-22T17:05:27.816Z,100363.66
2022-12-22T17:07:57.577Z,100374.91
2022-12-22T17:10:25.432Z,100377.50
2022-12-22T17:12:56.053Z,100368.69
2022-12-22T17:15:24.922Z,100351.97
2022-12-22T17:17:53.109Z,100347.38
2022-12-22T17:20:23.239Z,100314.31
2022-12-22T17:23:02.321Z,100321.31
2022-12-22T17:25:31.242Z,100324.97
2022-12-22T17:28:02.058Z,100325.88
2022-12-22T17:30:29.321Z,100341.53
2022-12-22T17:32:56.585Z,100332.06
2022-12-22T17:35:26.094Z,100353.91
2022-12-22T17:37:54.373Z,100351.34
2022-12-22T17:40:28.684Z,100355.69
2022-12-22T17:42:58.289Z,100356.53
2022-12-22T17:45:25.977Z,100311.78
2022-12-22T17:47:53.324Z,100356.66
2022-12-22T17:50:23.406Z,100367.03
2022-12-22T17:52:50.786Z,100347.22
2022-12-22T17:56:01.259Z,100354.16
2022-12-22T17:58:17.147Z,100361.03
2022-12-22T18:00:44.757Z,100358.44
2022-12-22T18:03:15.617Z,100338.56
2022-12-22T18:05:45.994Z,100335.16
2022-12-22T18:08:18.025Z,100335.09
2022-12-22T18:10:46.232Z,100334.75
2022-12-22T18:13:20.203Z,100350.91
2022-12-22T18:15:47.614Z,100344.81
2022-12-22T18:18:16.398Z,100312.38
2022-12-22T18:20:44.728Z,100312.19
2022-12-22T18:23:33.504Z,100327.47
2022-12-22T18:26:01.241Z,100285.09
2022-12-22T18:28:28.478Z,100310.88
2022-12-22T18:30:55.731Z,100299.72
2022-12-22T18:33:23.039Z,100327.72
2022-12-22T18:35:50.659Z,100317.38
2022-12-22T18:38:30.456Z,100330.41
2022-12-22T18:40:58.029Z,100313.41
2022-12-22T18:43:25.395Z,100324.72
2022-12-22T18:45:52.652Z,100320.44
2022-12-22T18:48:19.941Z,100335.00
2022-12-22T18:50:48.777Z,100319.00
2022-12-22T18:53:26.661Z,100336.47
2022-12-22T18:55:54.522Z,100325.19
2022-12-22T18:58:22.313Z,100311.94
2022-12-22T19:00:50.712Z,100305.72
2022-12-22T19:03:24.560Z,100304.03
2022-12-22T19:05:52.283Z,100302.50
2022-12-22T19:08:22.346Z,100293.03
2022-12-22T19:11:03.104Z,100299.84
2022-12-22T19:13:34.376Z,100310.25
2022-12-22T19:16:02.201Z,100291.66
2022-12-22T19:18:29.520Z,100296.06
2022-12-22T19:20:57.305Z,100302.13
2022-12-22T19:23:25.804Z,100300.50
2022-12-22T19:25:56.112Z,100302.94
2022-12-22T19:28:42.164Z,100302.06
2022-12-22T19:31:16.300Z,100292.50
2022-12-22T19:33:44.212Z,100275.84
2022-12-22T19:36:17.758Z,100286.09
2022-12-22T19:38:49.932Z,100279.50
2022-12-22T19:41:28.585Z,100289.94
2022-12-22T19:43:56.232Z,100281.34
2022-12-22T19:46:26.013Z,100287.41
2022-12-22T19:48:53.336Z,100283.09
2022-12-22T19:51:20.619Z,100254.66
2022-12-22T19:53:47.836Z,100304.72
2022-12-22T19:56:27.687Z,100282.25
2022-12-22T19:58:55.755Z,100295.03
2022-12-22T20:01:23.076Z,100273.53
2022-12-22T20:03:50.512Z,100285.22
2022-12-22T20:06:17.892Z,100278.41
2022-12-22T20:08:45.210Z,100231.00
2022-12-22T20:11:15.099Z,100270.00
2022-12-22T20:13:42.420Z,100308.84
2022-12-22T20:16:14.291Z,100320.97
2022-12-22T20:18:42.789Z,100323.56
2022-12-22T20:21:29.491Z,100311.13
2022-12-22T20:24:00.151Z,100310.34
2022-12-22T20:26:27.688Z,100313.00
2022-12-22T20:28:55.001Z,100312.25
2022-12-22T20:31:24.582Z,100315.66
2022-12-22T20:33:54.847Z,100308.81
2022-12-22T20:36:28.706Z,100292.41
2022-12-22T20:38:57.377Z,100328.56
2022-12-22T20:41:25.650Z,100321.41
2022-12-22T20:43:53.836Z,100314.66
2022-12-22T20:46:26.037Z,100318.94
2022-12-22T20:48:59.440Z,100315.53
2022-12-22T20:51:30.528Z,100333.53
2022-12-22T20:53:58.721Z,100312.94
2022-12-22T20:56:36.325Z,100313.00
2022-12-22T20:59:19.218Z,100319.88
2022-12-22T21:01:47.991Z,100333.75
2022-12-22T21:04:15.985Z,100314.75
2022-12-22T21:06:52.918Z,100316.47
2022-12-22T21:09:20.783Z,100311.34
2022-12-22T21:11:48.616Z,100319.03
2022-12-22T21:14:16.377Z,100279.38
2022-12-22T21:16:43.918Z,100299.19
2022-12-22T21:19:18.854Z,100316.38
2022-12-22T21:21:46.969Z,100312.94
2022-12-22T21:24:14.267Z,100316.41
2022-12-22T21:26:49.716Z,100306.91
2022-12-22T21:29:21.482Z,100305.16
2022-12-22T21:31:48.916Z,100286.25
2022-12-22T21:34:16.168Z,100317.19
2022-12-22T21:36:45.529Z,100312.91
2022-12-22T21:39:31.388Z,100305.09
2022-12-22T21:42:01.773Z,100293.84
2022-12-22T21:44:31.225Z,100299.00
2022-12-22T21:46:58.806Z,100298.16
2022-12-22T21:49:31.190Z,100247.22
2022-12-22T21:51:58.693Z,100257.50
2022-12-22T21:54:26.370Z,100259.97
2022-12-22T21:56:54.133Z,100282.19
2022-12-22T21:59:21.864Z,100279.53
2022-12-22T22:01:52.596Z,100275.38
2022-12-22T22:04:20.640Z,100269.41
2022-12-22T22:06:48.216Z,100277.09
2022-12-22T22:09:15.484Z,100245.16
2022-12-22T22:12:01.614Z,100260.63
2022-12-22T22:14:28.868Z,100252.88
2022-12-22T22:16:56.071Z,100250.25
2022-12-22T22:19:23.305Z,100224.44
2022-12-22T22:21:50.502Z,100248.50
2022-12-22T22:24:17.759Z,100224.38
2022-12-22T22:26:46.377Z,100256.00
2022-12-22T22:29:13.611Z,100222.38
2022-12-22T22:31:41.440Z,100226.72
2022-12-22T22:34:09.264Z,100231.03
2022-12-22T22:36:36.553Z,100225.84
2022-12-22T22:39:03.894Z,100216.13
2022-12-22T22:41:37.667Z,100225.75
2022-12-22T22:44:08.308Z,100236.81
2022-12-22T22:46:35.750Z,100232.34
2022-12-22T22:49:03.084Z,100223.78
2022-12-22T22:51:31.290Z,100225.63
2022-12-22T22:53:58.550Z,100228.16
2022-12-22T22:56:25.877Z,100224.84
2022-12-22T22:58:53.089Z,100208.69
2022-12-22T23:01:20.382Z,100167.66
2022-12-22T23:03:47.763Z,100210.75
2022-12-22T23:06:15.208Z,100210.84
2022-12-22T23:08:42.446Z,100198.72
2022-12-22T23:11:14.605Z,100197.78
2022-12-22T23:13:42.421Z,100218.53
2022-12-22T23:16:10.201Z,100215.06
2022-12-22T23:18:38.129Z,100221.03
2022-12-22T23:21:07.545Z,100193.47
2022-12-22T23:23:35.710Z,100191.03
2022-12-22T23:26:03.219Z,100211.66
2022-12-22T23:28:30.577Z,100214.84
2022-12-22T23:30:58.303Z,100174.41
2022-12-22T23:33:25.640Z,100224.25
2022-12-22T23:35:53.631Z,100230.13
2022-12-22T23:38:21.154Z,100204.13
2022-12-22T23:40:54.160Z,100220.72
2022-12-22T23:43:22.416Z,100212.97
2022-12-22T23:45:49.748Z,100198.34
2022-12-22T23:48:17.061Z,100107.13
2022-12-22T23:50:48.285Z,100216.53
2022-12-22T23:53:16.904Z,100206.47
2022-12-22T23:55:45.252Z,100181.59
2022-12-22T23:58:12.828Z,100208.50
